Stuart, FL

7:55 PM EST on November 24, 2014 (GMT -0500)
Vero Beach Municipal | Change Station
CLOSE
Current Station
Airport
Location: Vero Beach,
Elevation: 23 ft
Nearby Weather Stations

Elev 23 ft 27.66 °N, 80.42 °W | Updated 1 hour ago

Clear
Clear
76 °F
Feels Like 76 °F
N
7
Wind Variable Wind from SE

Today
High -- | Low -- °F
--% Chance of Precip.
Yesterday
High -- | Low -- °F
Precip. -- in
6:48 AM 5:27 PM
Waxing Crescent, 8% visible
Pressure 29.98 in
Visibility 9.0 miles
Clouds Few 5000 ft
Scattered Clouds 6000 ft
Dew Point 74 °F
Humidity 94%
Rainfall 0.00 in
Snow Depth Not available.
UV 0 out of 12
Pollen 4.00 out of 12
Air Quality Not available.
Flu Activity Not available.
METAR KVRB 242353Z 13006KT 9SM FEW050 SCT060 24/23 A2998 RMK AO2 SLP150 T02440233 10300 20244 53010

More Conditions Fewer Conditions

Pressure 29.98 in
Visibility 9.0 miles
Clouds Few 5000 ft
Scattered Clouds 6000 ft
Dew Point 74 °F
Humidity 94%
Rainfall 0.00 in
Snow Depth Not available.
UV 0 out of 12
Pollen 4.00 out of 12
Air Quality Not available.
Flu Activity Not available.
METAR KVRB 242353Z 13006KT 9SM FEW050 SCT060 24/23 A2998 RMK AO2 SLP150 T02440233 10300 20244 53010

More Conditions Fewer Conditions

Nowcast | as of 6:00 PM EST on November 24, 2014

Southerly winds ahead of a cold front moving into the Florida Panhandle tonight will keep warm temperatures across east central Florida. Lows will drop into the upper 60s to lower 70s across the area. A strong jet stream across the southeast states will add mid level lift across central Florida late tonight ahead of the cold front with increasing cloudiness and a chance for the development of late night showers. Small craft operators should exercise caution across the offshore waters north of Sebastian Inlet. Additional details...including graphics are available online at: http://www.Srh.NOAA.Gov/mlb/blog.Php

×

10-Day Weather Forecast

Almanac

Astronomy

Nov. 24, 2014 Rise Set
Actual Time
Civil Twilight
Nautical Twilight
Astronomical Twilight
Moon
Length of Visible Light
Length of Day
Tomorrow will be .
, % of the Moon is Illuminated

Today's Extremes

State Highs State Lows

Community

WunderPhotos

Upload Photos

1,773,442 photos uploaded!

WunderBlogs® & News

Nearby

Air Quality

  Air Quality AQ Index Pollutant
Not available.

Snow Depth

Station Depth Elevation

Earthquake Activity

City Distance Mag. Time & Date
Minimum magnitude displayed is 2.5.

Coastal Water Temperatures

Place Temperature

Nearby Weather Stations